createdAt,value
2023-05-14T00:00:54.158Z,41.68
2023-05-14T00:01:54.139Z,40.44
2023-05-14T00:02:54.175Z,39.55
2023-05-14T00:03:54.293Z,43.26
2023-05-14T00:04:54.114Z,43.01
2023-05-14T00:05:54.101Z,38.63
2023-05-14T00:06:54.079Z,40.79
2023-05-14T00:07:54.066Z,39.26
2023-05-14T00:08:54.058Z,39.75
2023-05-14T00:09:54.060Z,43.03
2023-05-14T00:10:54.062Z,40.23
2023-05-14T00:11:54.030Z,41.15
2023-05-14T00:12:54.023Z,40.55
2023-05-14T00:13:54.014Z,39.52
2023-05-14T00:14:54.021Z,44.65
2023-05-14T00:15:54.030Z,39.61
2023-05-14T00:16:53.984Z,38.61
2023-05-14T00:17:54.010Z,38.78
2023-05-14T00:18:54.026Z,43.65
2023-05-14T00:19:53.956Z,41.42
2023-05-14T00:20:53.932Z,39.07
2023-05-14T00:21:53.919Z,39.94
2023-05-14T00:22:53.918Z,38.28
2023-05-14T00:23:53.902Z,40.92
2023-05-14T00:24:53.902Z,40.47
2023-05-14T00:25:53.886Z,38.55
2023-05-14T00:26:53.875Z,38.51
2023-05-14T00:27:53.866Z,38.86
2023-05-14T00:28:53.852Z,38.49
2023-05-14T00:29:53.856Z,39.08
2023-05-14T00:30:53.860Z,39.24
2023-05-14T00:31:53.891Z,39.31
2023-05-14T00:32:53.812Z,40.02
2023-05-14T00:33:53.817Z,39.19
2023-05-14T00:34:53.791Z,43.89
2023-05-14T00:35:53.771Z,40.45
2023-05-14T00:36:53.768Z,40.45
2023-05-14T00:37:53.757Z,40.38
2023-05-14T00:38:53.757Z,43.09
2023-05-14T00:39:53.731Z,38.53
2023-05-14T00:40:53.727Z,36.92
2023-05-14T00:41:53.733Z,37.46
2023-05-14T00:42:53.711Z,37.81
2023-05-14T00:43:53.698Z,39.42
2023-05-14T00:44:53.682Z,40.49
2023-05-14T00:45:53.697Z,39.70
2023-05-14T00:46:53.696Z,39.48
2023-05-14T00:47:53.730Z,40.01
2023-05-14T00:48:53.658Z,40.26
2023-05-14T00:49:53.639Z,44.32
2023-05-14T00:50:53.619Z,39.12
2023-05-14T00:51:53.598Z,40.76
2023-05-14T00:52:53.610Z,40.66
2023-05-14T00:53:53.574Z,38.49
2023-05-14T00:54:53.568Z,38.08
2023-05-14T00:55:53.562Z,37.16
2023-05-14T00:56:53.545Z,37.18
2023-05-14T00:57:53.553Z,37.61
2023-05-14T00:58:53.524Z,38.38
2023-05-14T00:59:53.615Z,39.98
2023-05-14T01:00:53.541Z,42.26
2023-05-14T01:01:53.500Z,38.68
2023-05-14T01:02:53.594Z,39.17
2023-05-14T01:03:53.626Z,38.45
2023-05-14T01:04:53.460Z,44.51
2023-05-14T01:05:53.447Z,41.25
2023-05-14T01:06:53.449Z,38.06
2023-05-14T01:07:53.435Z,39.68
2023-05-14T01:08:53.429Z,38.45
2023-05-14T01:09:53.405Z,38.06
2023-05-14T01:10:53.392Z,38.33
2023-05-14T01:11:53.393Z,39.17
2023-05-14T01:12:53.375Z,39.64
2023-05-14T01:13:53.359Z,40.56
2023-05-14T01:14:53.345Z,38.17
2023-05-14T01:15:53.332Z,37.35
2023-05-14T01:16:53.364Z,37.62
2023-05-14T01:17:53.351Z,38.68
2023-05-14T01:18:53.345Z,37.98
2023-05-14T01:19:53.300Z,38.23
2023-05-14T01:20:53.300Z,37.29
2023-05-14T01:21:53.289Z,37.38
2023-05-14T01:22:53.261Z,36.93
2023-05-14T01:23:53.253Z,36.89
2023-05-14T01:24:53.249Z,46.43
2023-05-14T01:25:53.248Z,37.59
2023-05-14T01:26:53.227Z,44.36
2023-05-14T01:27:53.217Z,48.94
2023-05-14T01:28:53.192Z,38.30
2023-05-14T01:29:53.183Z,36.84
2023-05-14T01:30:53.196Z,36.75
2023-05-14T01:31:53.166Z,37.87
2023-05-14T01:32:53.190Z,37.68
2023-05-14T01:33:53.138Z,46.02
2023-05-14T01:34:53.144Z,37.86
2023-05-14T01:35:53.118Z,46.02
2023-05-14T01:36:53.108Z,44.09
2023-05-14T01:37:53.090Z,44.23
2023-05-14T01:38:53.106Z,38.68
2023-05-14T01:39:53.089Z,38.71
2023-05-14T01:40:53.093Z,39.41
2023-05-14T01:41:53.044Z,38.77
2023-05-14T01:42:53.101Z,37.57
2023-05-14T01:43:53.020Z,37.61
2023-05-14T01:44:53.022Z,37.14
2023-05-14T01:45:53.038Z,36.34
2023-05-14T01:46:52.999Z,37.36
2023-05-14T01:47:53.015Z,36.39
2023-05-14T01:48:52.981Z,36.68
2023-05-14T01:49:52.980Z,37.02
2023-05-14T01:50:52.948Z,36.77
2023-05-14T01:51:52.940Z,37.31
2023-05-14T01:52:52.927Z,36.54
2023-05-14T01:53:52.937Z,36.58
2023-05-14T01:54:52.915Z,36.16
2023-05-14T01:55:52.900Z,36.10
2023-05-14T01:56:52.882Z,36.14
2023-05-14T01:57:52.875Z,42.17
2023-05-14T01:58:52.878Z,45.14
2023-05-14T01:59:52.848Z,35.92
2023-05-14T02:00:52.834Z,39.38
2023-05-14T02:01:52.909Z,38.27
2023-05-14T02:02:52.829Z,36.20
2023-05-14T02:03:52.870Z,35.86
2023-05-14T02:04:52.789Z,37.52
2023-05-14T02:05:52.799Z,36.35
2023-05-14T02:06:52.773Z,36.94
2023-05-14T02:07:52.794Z,38.05
2023-05-14T02:08:52.761Z,37.88
2023-05-14T02:09:52.740Z,39.44
2023-05-14T02:10:52.734Z,37.47
2023-05-14T02:11:52.725Z,36.34
2023-05-14T02:12:52.716Z,36.28
2023-05-14T02:13:52.703Z,36.60
2023-05-14T02:14:52.694Z,37.06
2023-05-14T02:15:52.715Z,37.29
2023-05-14T02:16:52.667Z,38.59
2023-05-14T02:17:52.718Z,42.17
2023-05-14T02:18:52.685Z,36.92
2023-05-14T02:19:52.636Z,43.55
2023-05-14T02:20:52.641Z,40.46
2023-05-14T02:21:52.630Z,36.41
2023-05-14T02:22:52.621Z,36.78
2023-05-14T02:23:52.591Z,36.84
2023-05-14T02:24:52.595Z,38.53
2023-05-14T02:25:52.564Z,39.48
2023-05-14T02:26:52.568Z,40.00
2023-05-14T02:27:52.547Z,39.44
2023-05-14T02:28:52.542Z,42.13
2023-05-14T02:29:52.524Z,44.50
2023-05-14T02:30:52.513Z,48.45
2023-05-14T02:31:52.552Z,44.88
2023-05-14T02:32:52.571Z,47.31
2023-05-14T02:33:52.486Z,46.79
2023-05-14T02:34:52.479Z,46.87
2023-05-14T02:35:52.468Z,45.96
2023-05-14T02:36:52.470Z,46.80
2023-05-14T02:37:52.443Z,46.83
2023-05-14T02:38:52.420Z,51.95
2023-05-14T02:39:52.424Z,50.35
2023-05-14T02:40:52.448Z,48.31
2023-05-14T02:41:52.407Z,46.62
2023-05-14T02:42:52.382Z,46.66
2023-05-14T02:43:52.370Z,47.13
2023-05-14T02:44:52.381Z,47.78
2023-05-14T02:45:52.371Z,49.04
2023-05-14T02:46:52.378Z,51.84
2023-05-14T02:47:52.387Z,51.87
2023-05-14T02:48:52.320Z,45.63
2023-05-14T02:49:52.317Z,51.91
2023-05-14T02:50:52.310Z,50.77
2023-05-14T02:51:52.284Z,50.74
2023-05-14T02:52:52.310Z,54.97
2023-05-14T02:53:52.274Z,47.49
2023-05-14T02:54:52.257Z,49.77
2023-05-14T02:55:52.258Z,54.11
2023-05-14T02:56:52.230Z,52.84
2023-05-14T02:57:52.222Z,53.58
2023-05-14T02:58:52.215Z,56.39
2023-05-14T02:59:52.195Z,54.33
2023-05-14T03:00:52.211Z,52.39
2023-05-14T03:01:52.208Z,51.37
2023-05-14T03:02:52.218Z,50.60
2023-05-14T03:03:52.153Z,49.62
2023-05-14T03:04:52.168Z,49.27
2023-05-14T03:05:52.176Z,49.34
2023-05-14T03:06:52.128Z,49.22
2023-05-14T03:07:52.114Z,47.45
2023-05-14T03:08:52.100Z,47.46
2023-05-14T03:09:52.122Z,52.21
2023-05-14T03:10:52.091Z,51.06
2023-05-14T03:11:52.070Z,48.50
2023-05-14T03:12:52.083Z,46.98
2023-05-14T03:13:52.052Z,45.54
2023-05-14T03:14:52.052Z,44.25
2023-05-14T03:15:52.039Z,45.94
2023-05-14T03:16:52.034Z,45.24
2023-05-14T03:17:52.057Z,50.38
2023-05-14T03:18:52.063Z,47.87
2023-05-14T03:19:51.997Z,48.67
2023-05-14T03:20:51.965Z,47.72
2023-05-14T03:21:51.964Z,46.08
2023-05-14T03:22:51.945Z,50.99
2023-05-14T03:23:51.945Z,50.06
2023-05-14T03:24:51.918Z,48.21
2023-05-14T03:25:51.917Z,47.38
2023-05-14T03:26:51.915Z,48.87
2023-05-14T03:27:51.892Z,45.49
2023-05-14T03:28:51.905Z,42.74
2023-05-14T03:29:51.873Z,42.97
2023-05-14T03:30:51.934Z,49.00
2023-05-14T03:31:51.850Z,44.69
2023-05-14T03:32:51.938Z,44.19
2023-05-14T03:33:51.846Z,42.52
2023-05-14T03:34:51.823Z,44.46
2023-05-14T03:35:51.850Z,49.01
2023-05-14T03:36:51.804Z,46.85
2023-05-14T03:37:51.824Z,46.51
2023-05-14T03:38:51.788Z,46.76
2023-05-14T03:39:51.766Z,47.02
2023-05-14T03:40:51.791Z,47.14
2023-05-14T03:41:51.746Z,50.95
2023-05-14T03:42:51.734Z,49.63
2023-05-14T03:43:51.716Z,50.70
2023-05-14T03:44:51.714Z,48.27
2023-05-14T03:45:51.703Z,47.38
2023-05-14T03:46:51.684Z,50.03
2023-05-14T03:47:51.782Z,48.25
2023-05-14T03:48:51.742Z,48.17
2023-05-14T03:49:51.672Z,47.09
2023-05-14T03:50:51.642Z,47.62
2023-05-14T03:51:51.669Z,47.96
2023-05-14T03:52:51.635Z,46.81
2023-05-14T03:53:51.644Z,44.29
2023-05-14T03:54:51.604Z,46.57
2023-05-14T03:55:51.585Z,49.90
2023-05-14T03:56:51.591Z,46.52
2023-05-14T03:57:51.577Z,47.40
2023-05-14T03:58:51.555Z,47.54
2023-05-14T03:59:51.543Z,51.81
2023-05-14T04:00:51.536Z,48.68
2023-05-14T04:01:51.538Z,47.46
2023-05-14T04:02:51.691Z,47.36
2023-05-14T04:03:51.648Z,50.41
2023-05-14T04:04:51.616Z,48.93
2023-05-14T04:05:51.480Z,48.85
2023-05-14T04:06:51.492Z,48.42
2023-05-14T04:07:51.458Z,49.48
2023-05-14T04:08:51.472Z,50.43
2023-05-14T04:09:51.441Z,54.88
2023-05-14T04:10:51.444Z,51.14
2023-05-14T04:11:51.434Z,51.75
2023-05-14T04:12:51.403Z,49.17
2023-05-14T04:13:51.394Z,46.48
2023-05-14T04:14:51.387Z,49.14
2023-05-14T04:15:51.500Z,47.12
2023-05-14T04:16:51.421Z,50.64
2023-05-14T04:17:51.387Z,47.71
2023-05-14T04:18:51.402Z,47.42
2023-05-14T04:19:51.400Z,51.32
2023-05-14T04:20:51.367Z,49.77
2023-05-14T04:21:51.299Z,47.27
2023-05-14T04:22:51.301Z,48.82
2023-05-14T04:23:51.282Z,48.58
2023-05-14T04:24:51.269Z,47.54
2023-05-14T04:25:51.374Z,48.25
2023-05-14T04:26:51.266Z,51.64
2023-05-14T04:27:51.251Z,47.18
2023-05-14T04:28:51.231Z,47.10
2023-05-14T04:29:51.230Z,46.25
2023-05-14T04:30:51.225Z,47.14
2023-05-14T04:31:51.259Z,47.47
2023-05-14T04:32:51.213Z,47.34
2023-05-14T04:33:51.176Z,45.88
2023-05-14T04:34:51.169Z,45.69
2023-05-14T04:35:51.141Z,47.04
2023-05-14T04:36:51.138Z,47.09
2023-05-14T04:37:51.132Z,47.29
2023-05-14T04:38:51.115Z,47.36
2023-05-14T04:39:51.116Z,47.10
2023-05-14T04:40:51.096Z,46.59
2023-05-14T04:41:51.084Z,42.72
2023-05-14T04:42:51.084Z,44.23
2023-05-14T04:43:51.063Z,48.05
2023-05-14T04:44:51.057Z,46.67
2023-05-14T04:45:51.085Z,46.64
2023-05-14T04:46:51.046Z,46.43
2023-05-14T04:47:51.083Z,48.09
2023-05-14T04:48:51.019Z,48.42
2023-05-14T04:49:51.001Z,47.03
2023-05-14T04:50:50.998Z,46.17
2023-05-14T04:51:50.976Z,47.61
2023-05-14T04:52:50.966Z,49.06
2023-05-14T04:53:50.970Z,50.52
2023-05-14T04:54:50.967Z,48.41
2023-05-14T04:55:50.940Z,49.01
2023-05-14T04:56:50.926Z,47.95
2023-05-14T04:57:50.901Z,47.40
2023-05-14T04:58:50.906Z,47.07
2023-05-14T04:59:50.885Z,47.81
2023-05-14T05:00:50.894Z,48.05
2023-05-14T05:01:50.866Z,46.86
2023-05-14T05:02:50.922Z,50.50
2023-05-14T05:03:50.899Z,47.30
2023-05-14T05:04:50.839Z,50.51
2023-05-14T05:05:50.820Z,44.99
2023-05-14T05:06:50.816Z,43.60
2023-05-14T05:07:50.822Z,42.85
2023-05-14T05:08:50.804Z,44.02
2023-05-14T05:09:50.783Z,47.39
2023-05-14T05:10:50.786Z,44.67
2023-05-14T05:11:50.760Z,45.66
2023-05-14T05:12:50.771Z,50.33
2023-05-14T05:13:50.753Z,48.68
2023-05-14T05:14:50.728Z,47.14
2023-05-14T05:15:50.737Z,47.86
2023-05-14T05:16:50.710Z,47.87
2023-05-14T05:17:50.741Z,46.97
2023-05-14T05:18:50.766Z,49.20
2023-05-14T05:19:50.673Z,49.82
2023-05-14T05:20:50.672Z,51.13
2023-05-14T05:21:50.671Z,54.08
2023-05-14T05:22:50.668Z,46.90
2023-05-14T05:23:50.637Z,49.89
2023-05-14T05:24:50.632Z,46.71
2023-05-14T05:25:50.620Z,51.01
2023-05-14T05:26:50.605Z,49.83
2023-05-14T05:27:50.603Z,48.93
2023-05-14T05:28:50.587Z,47.67
2023-05-14T05:29:50.583Z,47.93
2023-05-14T05:30:50.574Z,48.33
2023-05-14T05:31:50.615Z,47.62
2023-05-14T05:32:50.583Z,45.72
2023-05-14T05:33:50.531Z,45.20
2023-05-14T05:34:50.540Z,45.92
2023-05-14T05:35:50.515Z,41.47
2023-05-14T05:36:50.516Z,47.32
2023-05-14T05:37:50.507Z,43.58
2023-05-14T05:38:50.477Z,41.56
2023-05-14T05:39:50.471Z,40.84
2023-05-14T05:40:50.455Z,42.41
2023-05-14T05:41:50.454Z,46.43
2023-05-14T05:42:50.435Z,50.73
2023-05-14T05:43:50.415Z,46.49
2023-05-14T05:44:50.420Z,49.43
2023-05-14T05:45:50.398Z,47.72
2023-05-14T05:46:50.550Z,44.92
2023-05-14T05:47:50.424Z,45.95
2023-05-14T05:48:50.384Z,48.22
2023-05-14T05:49:50.352Z,48.68
2023-05-14T05:50:50.534Z,45.48
2023-05-14T05:51:50.344Z,46.11
2023-05-14T05:52:50.319Z,46.71
2023-05-14T05:54:44.311Z,50.67
2023-05-14T05:54:51.319Z,50.36
2023-05-14T05:55:50.305Z,49.86
2023-05-14T05:56:50.280Z,47.55
2023-05-14T05:57:50.271Z,47.72
2023-05-14T05:58:50.268Z,53.70
2023-05-14T05:59:50.248Z,47.40
2023-05-14T06:00:50.257Z,50.64
2023-05-14T06:01:50.260Z,49.65
2023-05-14T06:02:50.253Z,48.32
2023-05-14T06:03:50.215Z,46.21
2023-05-14T06:04:50.216Z,48.65
2023-05-14T06:05:50.222Z,48.95
2023-05-14T06:06:50.182Z,44.35
2023-05-14T06:07:50.167Z,47.31
2023-05-14T06:08:50.161Z,45.00
2023-05-14T06:09:50.153Z,46.28
2023-05-14T06:10:50.165Z,41.61
2023-05-14T06:11:50.129Z,45.30
2023-05-14T06:12:50.128Z,47.12
2023-05-14T06:13:50.103Z,50.17
2023-05-14T06:14:50.089Z,45.58
2023-05-14T06:15:50.087Z,42.79
2023-05-14T06:16:50.124Z,42.44
2023-05-14T06:17:50.094Z,46.36
2023-05-14T06:18:50.103Z,42.11
2023-05-14T06:19:50.056Z,43.05
2023-05-14T06:20:50.044Z,47.63
2023-05-14T06:21:50.038Z,39.87
2023-05-14T06:22:50.011Z,39.85
2023-05-14T06:23:50.005Z,41.51
2023-05-14T06:24:50.008Z,47.51
2023-05-14T06:25:50.770Z,48.86
2023-05-14T06:26:49.972Z,47.42
2023-05-14T06:27:49.974Z,47.15
2023-05-14T06:28:49.949Z,41.16
2023-05-14T06:29:49.946Z,50.60
2023-05-14T06:30:49.932Z,44.10
2023-05-14T06:31:49.959Z,44.72
2023-05-14T06:32:49.949Z,43.95
2023-05-14T06:33:49.909Z,45.62
2023-05-14T06:34:49.925Z,47.42
2023-05-14T06:35:49.878Z,44.64
2023-05-14T06:36:49.875Z,45.75
2023-05-14T06:37:49.847Z,45.90
2023-05-14T06:38:49.852Z,47.87
2023-05-14T06:39:49.870Z,48.06
2023-05-14T06:40:49.824Z,45.81
2023-05-14T06:41:49.809Z,46.66
2023-05-14T06:42:49.803Z,43.69
2023-05-14T06:43:49.806Z,45.96
2023-05-14T06:44:49.780Z,44.63
2023-05-14T06:45:49.773Z,43.68
2023-05-14T06:46:49.767Z,47.85
2023-05-14T06:47:49.902Z,45.86
2023-05-14T06:48:49.782Z,47.31
2023-05-14T06:49:49.729Z,49.75
2023-05-14T06:50:49.735Z,51.64
2023-05-14T06:51:49.711Z,50.19
2023-05-14T06:52:49.719Z,50.90
2023-05-14T06:53:49.694Z,47.57
2023-05-14T06:54:49.683Z,49.10
2023-05-14T06:55:49.668Z,47.73
2023-05-14T06:56:49.662Z,41.45
2023-05-14T06:57:49.654Z,46.25
2023-05-14T06:58:49.640Z,43.84
2023-05-14T06:59:49.630Z,44.19
2023-05-14T07:00:49.614Z,47.42
2023-05-14T07:01:49.677Z,47.55
2023-05-14T07:02:49.667Z,47.10
2023-05-14T07:03:49.638Z,48.68
2023-05-14T07:04:49.671Z,53.31
2023-05-14T07:05:49.565Z,46.73
2023-05-14T07:06:49.569Z,49.84
2023-05-14T07:07:49.554Z,47.85
2023-05-14T07:08:50.389Z,44.48
2023-05-14T07:09:49.529Z,47.82
2023-05-14T07:10:49.519Z,50.25
2023-05-14T07:11:49.512Z,48.54
2023-05-14T07:12:49.500Z,49.88
2023-05-14T07:13:49.488Z,50.36
2023-05-14T07:14:49.473Z,48.81
2023-05-14T07:15:49.462Z,47.96
2023-05-14T07:16:49.489Z,43.33
2023-05-14T07:17:49.545Z,51.41
2023-05-14T07:18:49.476Z,46.09
2023-05-14T07:19:49.420Z,50.82
2023-05-14T07:20:49.410Z,51.77
2023-05-14T07:21:49.410Z,53.55
2023-05-14T07:22:49.392Z,46.66
2023-05-14T07:23:49.385Z,48.48
2023-05-14T07:24:49.392Z,47.32
2023-05-14T07:25:49.368Z,46.56
2023-05-14T07:26:49.376Z,49.36
2023-05-14T07:27:49.345Z,44.55
2023-05-14T07:28:49.337Z,41.04
2023-05-14T07:29:49.316Z,40.08
2023-05-14T07:30:49.322Z,44.70
2023-05-14T07:31:49.328Z,49.32
2023-05-14T07:32:49.349Z,42.53
2023-05-14T07:33:49.276Z,47.69
2023-05-14T07:34:49.272Z,41.73
2023-05-14T07:35:49.274Z,49.82
2023-05-14T07:36:49.246Z,43.06
2023-05-14T07:37:49.234Z,50.00
2023-05-14T07:38:49.233Z,47.86
2023-05-14T07:39:49.232Z,48.45
2023-05-14T07:40:49.245Z,50.90
2023-05-14T07:41:49.195Z,41.33
2023-05-14T07:42:49.210Z,49.96
2023-05-14T07:43:49.175Z,40.80
2023-05-14T07:44:49.182Z,38.95
2023-05-14T07:45:49.157Z,39.98
2023-05-14T07:46:49.158Z,48.73
2023-05-14T07:47:49.200Z,42.54
2023-05-14T07:48:49.125Z,41.57
2023-05-14T07:49:49.129Z,49.10
2023-05-14T07:50:49.111Z,49.38
2023-05-14T07:51:49.085Z,47.60
2023-05-14T07:52:49.093Z,48.16
2023-05-14T07:53:49.085Z,40.80
2023-05-14T07:54:50.574Z,44.67
2023-05-14T07:55:49.067Z,45.07
2023-05-14T07:56:49.043Z,39.82
2023-05-14T07:57:49.038Z,42.25
2023-05-14T07:58:49.046Z,39.99
2023-05-14T07:59:49.025Z,40.84
2023-05-14T08:00:49.008Z,43.28
2023-05-14T08:01:49.022Z,42.81
2023-05-14T08:02:49.257Z,42.54
2023-05-14T08:03:49.128Z,42.10
2023-05-14T08:04:48.964Z,41.25
2023-05-14T08:05:48.964Z,42.04
2023-05-14T08:06:48.951Z,38.96
2023-05-14T08:07:48.942Z,43.27
2023-05-14T08:08:48.962Z,43.19
2023-05-14T08:09:48.921Z,37.72
2023-05-14T08:10:48.928Z,41.54
2023-05-14T08:11:48.897Z,41.61
2023-05-14T08:12:48.906Z,49.56
2023-05-14T08:13:48.892Z,42.67
2023-05-14T08:14:48.882Z,41.85
2023-05-14T08:15:48.866Z,44.31
2023-05-14T08:16:48.942Z,39.56
2023-05-14T08:17:48.901Z,43.95
2023-05-14T08:18:48.871Z,41.27
2023-05-14T08:19:48.830Z,45.01
2023-05-14T08:20:48.811Z,43.81
2023-05-14T08:21:48.808Z,38.07
2023-05-14T08:22:48.804Z,38.38
2023-05-14T08:23:48.787Z,41.87
2023-05-14T08:24:48.856Z,42.63
2023-05-14T08:25:48.785Z,41.34
2023-05-14T08:26:48.756Z,46.04
2023-05-14T08:27:48.757Z,49.28
2023-05-14T08:28:48.731Z,46.03
2023-05-14T08:29:48.723Z,42.44
2023-05-14T08:30:48.750Z,44.42
2023-05-14T08:31:48.718Z,49.09
2023-05-14T08:32:48.709Z,40.22
2023-05-14T08:33:48.684Z,49.29
2023-05-14T08:34:48.668Z,48.71
2023-05-14T08:35:48.664Z,39.86
2023-05-14T08:36:48.658Z,43.42
2023-05-14T08:37:48.649Z,46.52
2023-05-14T08:38:48.630Z,42.99
2023-05-14T08:39:48.657Z,41.78
2023-05-14T08:40:48.609Z,46.43
2023-05-14T08:41:48.756Z,48.05
2023-05-14T08:42:48.597Z,44.82
2023-05-14T08:43:48.580Z,49.12
2023-05-14T08:44:48.575Z,47.84
2023-05-14T08:45:48.570Z,49.27
2023-05-14T08:46:48.556Z,41.77
2023-05-14T08:47:48.629Z,45.25
2023-05-14T08:48:48.588Z,48.47
2023-05-14T08:49:48.522Z,44.41
2023-05-14T08:50:48.514Z,43.73
2023-05-14T08:51:48.567Z,42.84
2023-05-14T08:52:48.490Z,41.48
2023-05-14T08:53:48.483Z,41.97
2023-05-14T08:54:48.463Z,47.96
2023-05-14T08:55:48.472Z,47.13
2023-05-14T08:56:50.496Z,45.72
2023-05-14T08:57:48.449Z,46.44
2023-05-14T08:58:48.429Z,48.83
2023-05-14T08:59:48.449Z,47.87
2023-05-14T09:00:48.429Z,48.03
2023-05-14T09:01:48.462Z,47.95
2023-05-14T09:02:48.407Z,50.01
2023-05-14T09:03:48.440Z,48.03
2023-05-14T09:04:48.378Z,49.97
2023-05-14T09:05:48.365Z,47.83
2023-05-14T09:06:48.347Z,47.42
2023-05-14T09:07:48.346Z,46.06
2023-05-14T09:08:48.332Z,47.97
2023-05-14T09:09:48.334Z,49.03
2023-05-14T09:10:48.314Z,52.37
2023-05-14T09:11:48.306Z,50.62
2023-05-14T09:12:48.293Z,45.65
2023-05-14T09:13:48.283Z,45.94
2023-05-14T09:14:48.282Z,46.87
2023-05-14T09:15:48.266Z,47.98
2023-05-14T09:16:48.326Z,46.75
2023-05-14T09:17:48.290Z,47.75
2023-05-14T09:18:48.477Z,43.79
2023-05-14T09:19:48.237Z,45.26
2023-05-14T09:20:48.210Z,45.85
2023-05-14T09:21:48.206Z,47.94
2023-05-14T09:22:48.188Z,40.79
2023-05-14T09:23:48.191Z,46.11
2023-05-14T09:24:48.164Z,49.28
2023-05-14T09:25:48.153Z,44.82
2023-05-14T09:26:48.144Z,50.27
2023-05-14T09:27:48.136Z,48.37
2023-05-14T09:28:48.137Z,50.42
2023-05-14T09:29:48.123Z,43.17
2023-05-14T09:30:48.101Z,44.33
2023-05-14T09:31:48.213Z,46.22
2023-05-14T09:32:48.103Z,43.83
2023-05-14T09:33:48.085Z,45.65
2023-05-14T09:34:48.065Z,48.97
2023-05-14T09:35:48.057Z,43.82
2023-05-14T09:36:48.041Z,48.46
2023-05-14T09:37:48.037Z,44.63
2023-05-14T09:38:48.033Z,45.35
2023-05-14T09:39:48.019Z,43.92
2023-05-14T09:40:48.005Z,45.24
2023-05-14T09:41:47.997Z,46.56
2023-05-14T09:42:47.984Z,49.10
2023-05-14T09:43:47.985Z,42.33
2023-05-14T09:44:47.988Z,44.52
2023-05-14T09:45:47.956Z,41.79
2023-05-14T09:46:47.975Z,43.41
2023-05-14T09:47:48.032Z,43.92
2023-05-14T09:48:47.939Z,46.68
2023-05-14T09:49:47.908Z,47.06
2023-05-14T09:50:47.909Z,43.85
2023-05-14T09:51:47.890Z,44.57
2023-05-14T09:52:47.874Z,46.95
2023-05-14T09:53:47.880Z,49.37
2023-05-14T09:54:47.855Z,46.44
2023-05-14T09:55:47.848Z,42.26
2023-05-14T09:56:47.835Z,46.88
2023-05-14T09:57:47.825Z,49.50
2023-05-14T09:58:47.825Z,42.25
2023-05-14T09:59:47.805Z,46.28
2023-05-14T10:00:47.844Z,45.29
2023-05-14T10:01:47.788Z,48.79
2023-05-14T10:02:47.812Z,43.69
2023-05-14T10:03:47.784Z,43.45
2023-05-14T10:04:47.785Z,44.61
2023-05-14T10:05:47.744Z,45.97
2023-05-14T10:06:47.738Z,43.87
2023-05-14T10:07:47.742Z,45.57
2023-05-14T10:08:47.719Z,41.84
2023-05-14T10:09:47.713Z,44.09
2023-05-14T10:10:47.692Z,43.56
2023-05-14T10:11:47.684Z,44.55
2023-05-14T10:12:47.679Z,44.57
2023-05-14T10:13:47.663Z,41.40
2023-05-14T10:14:47.766Z,47.31
2023-05-14T10:15:47.647Z,39.24
2023-05-14T10:16:47.666Z,42.79
2023-05-14T10:17:47.653Z,45.36
2023-05-14T10:18:47.664Z,44.91
2023-05-14T10:19:47.606Z,42.37
2023-05-14T10:20:47.587Z,44.77
2023-05-14T10:21:47.587Z,41.52
2023-05-14T10:22:47.593Z,43.95
2023-05-14T10:23:47.570Z,46.14
2023-05-14T10:24:47.552Z,46.46
2023-05-14T10:25:47.541Z,45.72
2023-05-14T10:26:47.538Z,45.65
2023-05-14T10:27:47.519Z,46.21
2023-05-14T10:28:47.509Z,42.74
2023-05-14T10:29:47.507Z,39.74
2023-05-14T10:30:47.544Z,45.91
2023-05-14T10:31:47.711Z,49.02
2023-05-14T10:32:47.494Z,43.30
2023-05-14T10:33:47.467Z,46.40
2023-05-14T10:34:47.445Z,44.85
2023-05-14T10:35:47.438Z,46.12
2023-05-14T10:36:47.463Z,42.29
2023-05-14T10:37:47.421Z,43.67
2023-05-14T10:38:47.443Z,40.42
2023-05-14T10:39:47.406Z,43.20
2023-05-14T10:40:47.394Z,46.15
2023-05-14T10:41:47.388Z,39.90
2023-05-14T10:42:47.383Z,43.53
2023-05-14T10:43:47.344Z,48.45
2023-05-14T10:44:47.332Z,45.81
2023-05-14T10:45:47.343Z,45.03
2023-05-14T10:46:47.333Z,46.63
2023-05-14T10:47:47.362Z,47.51
2023-05-14T10:48:47.287Z,48.90
2023-05-14T10:49:47.285Z,47.91
2023-05-14T10:50:47.327Z,47.40
2023-05-14T10:51:47.270Z,46.85
2023-05-14T10:52:47.247Z,45.36
2023-05-14T10:53:47.237Z,45.96
2023-05-14T10:54:47.241Z,49.62
2023-05-14T10:55:47.227Z,43.26
2023-05-14T10:56:47.205Z,45.18
2023-05-14T10:57:47.216Z,42.24
2023-05-14T10:58:47.192Z,43.99
2023-05-14T10:59:47.195Z,45.05
2023-05-14T11:00:47.185Z,45.94
2023-05-14T11:01:47.168Z,40.88
2023-05-14T11:02:47.295Z,43.56
2023-05-14T11:03:47.258Z,50.76
2023-05-14T11:04:47.150Z,41.16
2023-05-14T11:05:47.109Z,50.49
2023-05-14T11:06:47.116Z,50.73
2023-05-14T11:07:47.102Z,41.74
2023-05-14T11:08:47.081Z,46.20
2023-05-14T11:09:47.095Z,42.99
2023-05-14T11:10:47.096Z,39.73
2023-05-14T11:11:47.046Z,44.03
2023-05-14T11:12:47.034Z,43.92
2023-05-14T11:13:47.042Z,43.41
2023-05-14T11:14:47.032Z,43.83
2023-05-14T11:15:47.010Z,40.99
2023-05-14T11:16:47.040Z,47.75
2023-05-14T11:17:47.047Z,41.18
2023-05-14T11:18:47.050Z,41.15
2023-05-14T11:19:47.929Z,39.15
2023-05-14T11:20:46.954Z,46.62
2023-05-14T11:21:47.041Z,38.86
2023-05-14T11:22:46.948Z,41.64
2023-05-14T11:23:46.946Z,48.02
2023-05-14T11:24:46.919Z,42.87
2023-05-14T11:25:46.920Z,43.12
2023-05-14T11:26:46.889Z,46.05
2023-05-14T11:27:46.920Z,44.99
2023-05-14T11:28:46.878Z,41.81
2023-05-14T11:29:46.854Z,43.64
2023-05-14T11:30:46.841Z,39.72
2023-05-14T11:31:46.874Z,42.99
2023-05-14T11:32:46.892Z,45.58
2023-05-14T11:33:46.811Z,46.37
2023-05-14T11:34:46.818Z,46.13
2023-05-14T11:35:46.790Z,42.77
2023-05-14T11:36:46.775Z,38.01
2023-05-14T11:37:46.779Z,41.98
2023-05-14T11:38:46.764Z,42.73
2023-05-14T11:39:46.749Z,41.15
2023-05-14T11:40:46.733Z,39.27
2023-05-14T11:41:46.736Z,41.53
2023-05-14T11:42:46.728Z,37.48
2023-05-14T11:43:46.710Z,37.17
2023-05-14T11:44:46.690Z,45.37
2023-05-14T11:45:46.708Z,43.76
2023-05-14T11:46:46.678Z,52.61
2023-05-14T11:47:46.806Z,38.80
2023-05-14T11:48:46.655Z,37.50
2023-05-14T11:49:46.640Z,43.50
2023-05-14T11:50:46.633Z,43.96
2023-05-14T11:51:46.645Z,41.44
2023-05-14T11:52:46.615Z,40.45
2023-05-14T11:53:46.609Z,42.94
2023-05-14T11:54:46.689Z,46.77
2023-05-14T11:55:46.588Z,45.27
2023-05-14T11:56:46.578Z,50.75
2023-05-14T11:57:46.598Z,47.21
2023-05-14T11:58:46.547Z,48.49
2023-05-14T11:59:46.536Z,47.72
2023-05-14T12:00:46.551Z,47.83
2023-05-14T12:01:46.853Z,47.72
2023-05-14T12:02:47.783Z,48.16
2023-05-14T12:03:47.794Z,46.84
2023-05-14T12:04:47.722Z,50.73
2023-05-14T12:05:47.618Z,52.40
2023-05-14T12:06:47.621Z,51.07
2023-05-14T12:07:47.599Z,46.34
2023-05-14T12:08:47.588Z,51.48
2023-05-14T12:09:47.641Z,48.16
2023-05-14T12:10:48.118Z,43.95
2023-05-14T12:11:47.570Z,43.07
2023-05-14T12:12:47.531Z,47.39
2023-05-14T12:13:47.540Z,44.67
2023-05-14T12:14:47.536Z,47.71
2023-05-14T12:15:47.525Z,52.01
2023-05-14T12:16:47.535Z,37.34
2023-05-14T12:17:47.502Z,36.43
2023-05-14T12:18:47.511Z,41.91
2023-05-14T12:19:47.505Z,43.98
2023-05-14T12:20:47.515Z,46.09
2023-05-14T12:21:47.453Z,43.83
2023-05-14T12:22:47.436Z,39.63
2023-05-14T12:23:47.432Z,36.24
2023-05-14T12:24:47.447Z,39.73
2023-05-14T12:25:47.420Z,45.27
2023-05-14T12:26:47.441Z,43.72
2023-05-14T12:27:47.406Z,45.17
2023-05-14T12:28:47.404Z,45.45
2023-05-14T12:29:47.377Z,44.25
2023-05-14T12:30:47.367Z,41.63
2023-05-14T12:31:47.416Z,48.75
2023-05-14T12:32:47.363Z,48.36
2023-05-14T12:33:47.369Z,45.87
2023-05-14T12:34:47.328Z,49.27
2023-05-14T12:35:47.318Z,44.18
2023-05-14T12:36:47.303Z,49.30
2023-05-14T12:37:47.326Z,44.31
2023-05-14T12:38:47.294Z,41.48
2023-05-14T12:39:47.277Z,40.91
2023-05-14T12:40:47.260Z,37.57
2023-05-14T12:41:47.255Z,46.61
2023-05-14T12:42:47.261Z,41.66
2023-05-14T12:43:47.269Z,48.71
2023-05-14T12:44:47.240Z,51.07
2023-05-14T12:45:47.215Z,44.00
2023-05-14T12:46:47.254Z,46.46
2023-05-14T12:47:47.229Z,44.91
2023-05-14T12:48:47.195Z,41.94
2023-05-14T12:49:47.154Z,44.12
2023-05-14T12:50:47.184Z,44.68
2023-05-14T12:51:47.165Z,44.28
2023-05-14T12:52:47.183Z,40.95